createdAt,value
2023-05-13T00:00:28.715Z,98.50
2023-05-13T00:02:55.598Z,98.60
2023-05-13T00:05:22.464Z,98.70
2023-05-13T00:07:49.331Z,98.50
2023-05-13T00:10:18.113Z,98.70
2023-05-13T00:12:44.836Z,98.90
2023-05-13T00:15:11.784Z,98.80
2023-05-13T00:17:38.538Z,98.60
2023-05-13T00:20:06.708Z,98.60
2023-05-13T00:22:33.498Z,98.70
2023-05-13T00:25:00.351Z,98.70
2023-05-13T00:27:27.150Z,98.80
2023-05-13T00:29:54.039Z,98.70
2023-05-13T00:32:20.909Z,98.80
2023-05-13T00:34:47.675Z,98.70
2023-05-13T00:37:14.680Z,98.60
2023-05-13T00:39:42.117Z,98.00
2023-05-13T00:42:11.393Z,97.70
2023-05-13T00:44:38.411Z,98.10
2023-05-13T00:47:05.741Z,97.70
2023-05-13T00:49:33.608Z,97.60
2023-05-13T00:52:01.554Z,97.80
2023-05-13T00:54:31.339Z,97.30
2023-05-13T00:56:59.509Z,97.30
2023-05-13T00:59:27.303Z,97.60
2023-05-13T01:02:09.758Z,97.80
2023-05-13T01:04:59.452Z,97.70
2023-05-13T01:07:26.298Z,97.90
2023-05-13T01:09:57.873Z,97.90
2023-05-13T01:12:36.001Z,98.00
2023-05-13T01:15:10.287Z,97.70
2023-05-13T01:17:55.470Z,97.60
2023-05-13T01:20:23.273Z,97.40
2023-05-13T01:22:50.727Z,97.50
2023-05-13T01:25:17.657Z,97.60
2023-05-13T01:27:44.465Z,97.70
2023-05-13T01:30:11.679Z,97.30
2023-05-13T01:32:38.773Z,97.40
2023-05-13T01:35:06.246Z,97.60
2023-05-13T01:37:33.037Z,98.10
2023-05-13T01:39:59.981Z,97.80
2023-05-13T01:42:28.261Z,98.60
2023-05-13T01:44:55.096Z,98.30
2023-05-13T01:47:22.005Z,98.10
2023-05-13T01:49:48.827Z,98.00
2023-05-13T01:52:15.707Z,97.90
2023-05-13T01:54:42.731Z,97.90
2023-05-13T01:57:09.441Z,97.80
2023-05-13T01:59:36.342Z,98.00
2023-05-13T02:02:04.231Z,97.60
2023-05-13T02:04:31.112Z,97.90
2023-05-13T02:06:57.883Z,97.90
2023-05-13T02:09:24.816Z,97.20
2023-05-13T02:11:51.626Z,97.10
2023-05-13T02:14:18.475Z,97.30
2023-05-13T02:16:45.501Z,97.50
2023-05-13T02:19:12.328Z,97.60
2023-05-13T02:21:39.213Z,97.70
2023-05-13T02:24:06.397Z,97.70
2023-05-13T02:26:33.229Z,98.00
2023-05-13T02:28:59.964Z,97.80
2023-05-13T02:31:26.943Z,98.30
2023-05-13T02:33:54.442Z,97.60
2023-05-13T02:36:21.376Z,97.60
2023-05-13T02:38:48.336Z,97.60
2023-05-13T02:41:15.115Z,97.80
2023-05-13T02:43:42.543Z,98.00
2023-05-13T02:46:09.554Z,98.00
2023-05-13T02:48:36.425Z,98.20
2023-05-13T02:51:03.168Z,98.10
2023-05-13T02:53:30.213Z,98.10
2023-05-13T02:55:57.167Z,98.40
2023-05-13T02:58:23.970Z,98.60
2023-05-13T03:00:50.827Z,98.50
2023-05-13T03:03:17.710Z,98.30
2023-05-13T03:05:44.961Z,98.30
2023-05-13T03:08:11.952Z,98.60
2023-05-13T03:10:38.822Z,98.40
2023-05-13T03:13:05.708Z,98.20
2023-05-13T03:15:32.509Z,98.10
2023-05-13T03:17:59.307Z,98.10
2023-05-13T03:20:26.156Z,97.90
2023-05-13T03:22:52.976Z,98.60
2023-05-13T03:25:19.886Z,98.30
2023-05-13T03:27:46.601Z,98.60
2023-05-13T03:30:14.169Z,98.60
2023-05-13T03:32:40.937Z,98.40
2023-05-13T03:35:08.007Z,98.60
2023-05-13T03:37:34.927Z,98.40
2023-05-13T03:40:01.881Z,97.90
2023-05-13T03:42:30.658Z,97.90
2023-05-13T03:44:57.522Z,97.80
2023-05-13T03:47:24.547Z,97.70
2023-05-13T03:49:51.325Z,97.90
2023-05-13T03:52:18.262Z,97.80
2023-05-13T03:54:45.030Z,97.90
2023-05-13T03:57:11.771Z,97.60
2023-05-13T03:59:38.608Z,97.40
2023-05-13T04:02:06.367Z,97.10
2023-05-13T04:04:33.168Z,97.40
2023-05-13T04:06:59.905Z,97.00
2023-05-13T04:09:26.929Z,97.10
2023-05-13T04:11:53.651Z,97.40
2023-05-13T04:14:20.974Z,97.50
2023-05-13T04:16:47.826Z,97.80
2023-05-13T04:19:14.652Z,97.90
2023-05-13T04:21:41.449Z,98.00
2023-05-13T04:24:08.249Z,97.90
2023-05-13T04:26:34.980Z,98.20
2023-05-13T04:29:01.868Z,98.20
2023-05-13T04:31:28.611Z,98.30
2023-05-13T04:33:55.528Z,98.70
2023-05-13T04:36:22.240Z,98.60
2023-05-13T04:38:49.022Z,98.40
2023-05-13T04:41:15.832Z,98.60
2023-05-13T04:43:42.692Z,98.70
2023-05-13T04:46:09.608Z,98.90
2023-05-13T04:48:36.672Z,99.20
2023-05-13T04:51:04.055Z,99.30
2023-05-13T04:53:31.252Z,99.10
2023-05-13T04:56:00.962Z,99.00
2023-05-13T04:58:28.350Z,99.00
2023-05-13T05:01:01.389Z,98.90
2023-05-13T05:03:28.253Z,99.20
2023-05-13T05:05:55.061Z,99.00
2023-05-13T05:08:21.754Z,98.90
2023-05-13T05:10:48.429Z,98.70
2023-05-13T05:13:15.142Z,99.00
2023-05-13T05:15:41.929Z,98.90
2023-05-13T05:18:10.222Z,98.90
2023-05-13T05:20:38.094Z,99.00
2023-05-13T05:23:04.896Z,98.90
2023-05-13T05:25:31.804Z,99.00
2023-05-13T05:27:58.509Z,99.40
2023-05-13T05:30:25.287Z,99.10
2023-05-13T05:32:52.691Z,99.20
2023-05-13T05:35:19.933Z,99.40
2023-05-13T05:37:46.780Z,99.20
2023-05-13T05:40:13.710Z,99.20
2023-05-13T05:42:40.412Z,99.30
2023-05-13T05:45:07.381Z,99.10
2023-05-13T05:47:34.306Z,99.10
2023-05-13T05:50:01.087Z,99.10
2023-05-13T05:52:27.947Z,99.30
2023-05-13T05:54:54.814Z,99.20
2023-05-13T05:57:21.755Z,98.90
2023-05-13T05:59:48.508Z,98.80
2023-05-13T06:02:16.010Z,99.10
2023-05-13T06:04:43.065Z,99.00
2023-05-13T06:07:10.101Z,98.50
2023-05-13T06:09:37.127Z,98.50
2023-05-13T06:12:03.987Z,98.50
2023-05-13T06:14:30.896Z,98.60
2023-05-13T06:16:57.673Z,98.90
2023-05-13T06:19:24.434Z,98.70
2023-05-13T06:21:51.163Z,98.90
2023-05-13T06:24:18.000Z,99.00
2023-05-13T06:26:45.297Z,99.00
2023-05-13T06:29:12.234Z,99.00
2023-05-13T06:31:39.003Z,98.80
2023-05-13T06:34:05.956Z,99.10
2023-05-13T06:36:33.210Z,99.10
2023-05-13T06:39:00.346Z,99.30
2023-05-13T06:41:27.147Z,99.30
2023-05-13T06:43:53.924Z,99.30
2023-05-13T06:46:20.909Z,99.60
2023-05-13T06:48:47.751Z,99.20
2023-05-13T06:51:14.592Z,99.40
2023-05-13T06:53:41.469Z,99.60
2023-05-13T06:56:08.169Z,99.30
2023-05-13T06:58:34.841Z,99.00
2023-05-13T07:01:02.357Z,99.20
2023-05-13T07:03:29.191Z,99.50
2023-05-13T07:05:55.957Z,98.80
2023-05-13T07:08:23.117Z,98.90
2023-05-13T07:10:49.909Z,99.10
2023-05-13T07:13:18.153Z,99.40
2023-05-13T07:15:47.390Z,99.50
2023-05-13T07:18:14.431Z,99.30
2023-05-13T07:20:41.207Z,99.30
2023-05-13T07:23:08.151Z,99.30
2023-05-13T07:25:35.009Z,99.20
2023-05-13T07:28:01.739Z,99.40
2023-05-13T07:30:28.697Z,99.30
2023-05-13T07:32:55.521Z,99.00
2023-05-13T07:35:22.519Z,99.40
2023-05-13T07:37:49.486Z,99.10
2023-05-13T07:40:16.388Z,99.60
2023-05-13T07:42:43.160Z,99.60
2023-05-13T07:45:10.346Z,99.40
2023-05-13T07:47:37.134Z,99.40
2023-05-13T07:50:04.094Z,99.20
2023-05-13T07:52:31.867Z,99.20
2023-05-13T07:54:58.561Z,98.80
2023-05-13T07:57:25.482Z,98.40
2023-05-13T07:59:53.880Z,98.30
2023-05-13T08:02:20.673Z,97.90
2023-05-13T08:04:47.493Z,97.60
2023-05-13T08:07:14.589Z,97.50
2023-05-13T08:09:41.316Z,98.00
2023-05-13T08:12:08.360Z,97.80
2023-05-13T08:14:35.937Z,97.80
2023-05-13T08:17:04.281Z,97.40
2023-05-13T08:19:31.254Z,97.10
2023-05-13T08:21:58.131Z,96.90
2023-05-13T08:24:24.900Z,97.30
2023-05-13T08:26:51.747Z,97.60
2023-05-13T08:29:18.622Z,97.10
2023-05-13T08:31:45.480Z,97.20
2023-05-13T08:34:12.483Z,97.40
2023-05-13T08:36:39.468Z,97.30
2023-05-13T08:39:07.934Z,97.30
2023-05-13T08:41:34.639Z,96.90
2023-05-13T08:44:03.360Z,96.80
2023-05-13T08:46:32.413Z,96.60
2023-05-13T08:48:59.328Z,96.50
2023-05-13T08:51:26.173Z,96.60
2023-05-13T08:53:53.622Z,97.00
2023-05-13T08:56:22.268Z,96.80
2023-05-13T08:58:49.049Z,96.50
2023-05-13T09:01:16.819Z,96.30
2023-05-13T09:03:53.025Z,96.20
2023-05-13T09:06:19.884Z,95.10
2023-05-13T09:08:46.768Z,95.10
2023-05-13T09:11:13.941Z,95.20
2023-05-13T09:13:42.593Z,95.40
2023-05-13T09:16:09.414Z,95.50
2023-05-13T09:18:36.446Z,95.90
2023-05-13T09:21:26.321Z,94.90
2023-05-13T09:24:13.365Z,95.30
2023-05-13T09:26:41.990Z,95.30
2023-05-13T09:29:18.836Z,95.10
2023-05-13T09:31:47.066Z,95.30
2023-05-13T09:34:13.948Z,95.30
2023-05-13T09:36:41.523Z,95.60
2023-05-13T09:39:08.241Z,95.30
2023-05-13T09:41:34.961Z,95.40
2023-05-13T09:44:05.246Z,95.20
2023-05-13T09:46:32.874Z,94.70
2023-05-13T09:48:59.646Z,95.20
2023-05-13T09:51:27.481Z,94.90
2023-05-13T09:53:55.019Z,94.40
2023-05-13T09:56:23.945Z,94.80
2023-05-13T09:58:53.701Z,94.60
2023-05-13T10:01:21.490Z,94.80
2023-05-13T10:03:48.744Z,95.30
2023-05-13T10:06:19.030Z,95.40
2023-05-13T10:08:47.480Z,95.80
2023-05-13T10:11:15.875Z,94.20
2023-05-13T10:13:43.641Z,95.00
2023-05-13T10:16:11.410Z,95.40
2023-05-13T10:18:38.592Z,95.20
2023-05-13T10:21:05.700Z,94.50
2023-05-13T10:23:33.093Z,94.70
2023-05-13T10:25:59.974Z,94.40
2023-05-13T10:28:28.334Z,94.70
2023-05-13T10:30:55.089Z,94.70
2023-05-13T10:33:22.142Z,94.90
2023-05-13T10:35:55.314Z,94.80
2023-05-13T10:38:33.968Z,94.40
2023-05-13T10:41:12.128Z,94.20
2023-05-13T10:43:39.129Z,94.10
2023-05-13T10:46:12.480Z,93.90
2023-05-13T10:48:43.548Z,94.20
2023-05-13T10:51:14.151Z,93.80
2023-05-13T10:53:47.133Z,94.70
2023-05-13T10:56:14.265Z,94.10
2023-05-13T10:58:41.236Z,94.10
2023-05-13T11:01:15.579Z,94.10
2023-05-13T11:03:50.103Z,94.30
2023-05-13T11:06:17.796Z,94.40
2023-05-13T11:08:45.909Z,94.50
2023-05-13T11:11:22.624Z,94.30
2023-05-13T11:13:49.780Z,93.10
2023-05-13T11:16:16.578Z,93.20
2023-05-13T11:18:43.544Z,93.20
2023-05-13T11:21:10.624Z,93.10
2023-05-13T11:23:52.639Z,93.60
2023-05-13T11:26:21.496Z,93.50
2023-05-13T11:28:58.783Z,93.10
2023-05-13T11:31:26.686Z,93.00
2023-05-13T11:34:05.801Z,92.70
2023-05-13T11:36:33.788Z,93.00
2023-05-13T11:39:07.427Z,92.40
2023-05-13T11:41:34.429Z,92.30
2023-05-13T11:44:03.332Z,92.50
2023-05-13T11:46:30.458Z,92.20
2023-05-13T11:48:57.278Z,92.90
2023-05-13T11:51:25.345Z,92.60
2023-05-13T11:53:55.157Z,93.10
2023-05-13T11:56:26.034Z,93.10
2023-05-13T11:58:53.408Z,93.40
2023-05-13T12:01:21.300Z,93.40
2023-05-13T12:03:48.174Z,93.20
2023-05-13T12:06:15.857Z,92.80
2023-05-13T12:08:46.334Z,93.00
2023-05-13T12:11:13.453Z,92.60
2023-05-13T12:13:41.524Z,92.40
2023-05-13T12:16:08.789Z,91.30
2023-05-13T12:18:37.244Z,91.50
2023-05-13T12:21:13.864Z,91.80
2023-05-13T12:23:43.256Z,91.30
2023-05-13T12:26:10.878Z,91.40
2023-05-13T12:28:37.864Z,91.60
2023-05-13T12:31:05.871Z,91.60
2023-05-13T12:33:50.781Z,90.80
2023-05-13T12:36:20.455Z,90.40
2023-05-13T12:38:59.832Z,90.60
2023-05-13T12:41:31.074Z,91.00
2023-05-13T12:43:58.934Z,91.40
2023-05-13T12:46:25.914Z,90.60
2023-05-13T12:48:54.879Z,91.00
2023-05-13T12:51:21.742Z,90.90
2023-05-13T12:53:48.518Z,90.80
2023-05-13T12:56:15.248Z,90.60
2023-05-13T12:58:42.078Z,90.80
2023-05-13T13:01:08.842Z,90.80
2023-05-13T13:03:35.789Z,90.60
2023-05-13T13:06:02.612Z,90.50
2023-05-13T13:08:30.536Z,90.40
2023-05-13T13:10:59.077Z,90.60
2023-05-13T13:13:26.076Z,91.20
2023-05-13T13:15:52.890Z,90.90
2023-05-13T13:18:19.692Z,90.60
2023-05-13T13:20:46.849Z,90.50
2023-05-13T13:23:13.744Z,89.40
2023-05-13T13:25:40.769Z,89.30
2023-05-13T13:28:07.517Z,90.20
2023-05-13T13:30:34.346Z,90.40
2023-05-13T13:33:01.135Z,90.40
2023-05-13T13:35:28.089Z,90.60
2023-05-13T13:37:55.524Z,90.80
2023-05-13T13:40:22.602Z,90.50
2023-05-13T13:42:49.874Z,90.40
2023-05-13T13:45:16.914Z,90.70
2023-05-13T13:47:43.839Z,90.60
2023-05-13T13:50:11.194Z,88.40
2023-05-13T13:52:37.977Z,88.60
2023-05-13T13:55:04.904Z,88.90
2023-05-13T13:57:31.756Z,89.50
2023-05-13T13:59:58.561Z,90.30
2023-05-13T14:02:25.497Z,90.00
2023-05-13T14:04:52.771Z,90.30
2023-05-13T14:07:20.055Z,90.30
2023-05-13T14:09:47.175Z,89.90
2023-05-13T14:12:14.190Z,90.40
2023-05-13T14:14:40.981Z,90.50
2023-05-13T14:17:07.843Z,90.70
2023-05-13T14:19:34.733Z,90.70
2023-05-13T14:22:01.470Z,91.70
2023-05-13T14:24:28.350Z,91.90
2023-05-13T14:26:55.363Z,92.00
2023-05-13T14:29:22.237Z,92.60
2023-05-13T14:31:49.374Z,92.70
2023-05-13T14:34:16.650Z,92.70
2023-05-13T14:36:43.591Z,92.70
2023-05-13T14:39:10.903Z,92.60
2023-05-13T14:41:37.783Z,92.90
2023-05-13T14:44:04.773Z,93.40
2023-05-13T14:46:33.908Z,92.70
2023-05-13T14:49:00.904Z,92.70
2023-05-13T14:51:27.832Z,93.10
2023-05-13T14:53:54.498Z,93.30
2023-05-13T14:56:21.501Z,92.80
2023-05-13T14:58:48.325Z,93.10
2023-05-13T15:01:15.225Z,92.50
2023-05-13T15:03:42.203Z,93.70
2023-05-13T15:06:09.012Z,97.00
2023-05-13T15:08:36.654Z,98.50
2023-05-13T15:11:03.696Z,98.50
2023-05-13T15:13:35.199Z,99.00
2023-05-13T15:16:02.718Z,99.20
2023-05-13T15:18:29.879Z,97.40
2023-05-13T15:20:56.576Z,97.60
2023-05-13T15:23:23.448Z,97.70
2023-05-13T15:25:50.854Z,98.20
2023-05-13T15:28:17.633Z,98.60
2023-05-13T15:30:44.398Z,99.20
2023-05-13T15:33:11.234Z,99.30
2023-05-13T15:35:38.854Z,99.10
2023-05-13T15:38:11.773Z,98.90
2023-05-13T15:40:38.822Z,98.90
2023-05-13T15:43:05.525Z,99.10
2023-05-13T15:45:32.375Z,99.00
2023-05-13T15:47:59.138Z,98.60
2023-05-13T15:50:26.193Z,99.00
2023-05-13T15:52:54.737Z,99.30
2023-05-13T15:55:21.821Z,99.10
2023-05-13T15:57:50.269Z,99.20
2023-05-13T16:00:17.968Z,98.80
2023-05-13T16:02:44.837Z,99.20
2023-05-13T16:05:15.735Z,99.90
2023-05-13T16:07:42.966Z,98.90
2023-05-13T16:10:10.878Z,99.50
2023-05-13T16:12:37.887Z,99.40
2023-05-13T16:15:05.273Z,99.50
2023-05-13T16:17:33.555Z,99.60
2023-05-13T16:20:01.546Z,99.20
2023-05-13T16:22:31.444Z,98.90
2023-05-13T16:25:00.135Z,98.90
2023-05-13T16:27:27.648Z,99.50
2023-05-13T16:29:56.257Z,99.00
2023-05-13T16:32:23.993Z,99.30
2023-05-13T16:34:52.520Z,99.40
2023-05-13T16:37:20.761Z,99.30
2023-05-13T16:39:48.186Z,99.40
2023-05-13T16:42:14.983Z,99.10
2023-05-13T16:44:41.871Z,99.70
2023-05-13T16:47:09.212Z,99.20
2023-05-13T16:49:36.278Z,98.90
2023-05-13T16:52:03.586Z,98.70
2023-05-13T16:54:30.296Z,98.70
2023-05-13T16:56:57.407Z,98.60
2023-05-13T16:59:25.237Z,98.60
2023-05-13T17:01:52.632Z,97.90
2023-05-13T17:04:19.860Z,98.30
2023-05-13T17:06:46.615Z,98.60
2023-05-13T17:09:13.426Z,98.50
2023-05-13T17:11:40.176Z,98.30
2023-05-13T17:14:07.389Z,98.40
2023-05-13T17:16:34.545Z,98.50
2023-05-13T17:19:01.684Z,98.30
2023-05-13T17:21:28.651Z,98.40
2023-05-13T17:23:55.475Z,98.60
2023-05-13T17:26:22.309Z,98.80
2023-05-13T17:28:49.738Z,99.30
2023-05-13T17:31:17.049Z,99.50
2023-05-13T17:33:43.902Z,99.90
2023-05-13T17:36:11.052Z,99.90
2023-05-13T17:38:37.882Z,99.90
2023-05-13T17:41:04.933Z,99.90
2023-05-13T17:43:32.087Z,99.90
2023-05-13T17:45:58.940Z,99.90
2023-05-13T17:48:26.649Z,99.90
2023-05-13T17:50:53.721Z,99.90
2023-05-13T17:53:21.198Z,99.90
2023-05-13T17:55:48.748Z,99.80
2023-05-13T17:58:16.106Z,99.90
2023-05-13T18:00:43.046Z,99.50
2023-05-13T18:03:09.849Z,99.20
2023-05-13T18:05:36.786Z,99.70
2023-05-13T18:08:03.668Z,99.70
2023-05-13T18:10:30.425Z,99.50
2023-05-13T18:12:57.448Z,99.40
2023-05-13T18:15:24.160Z,99.40
2023-05-13T18:17:51.055Z,99.60
2023-05-13T18:20:18.073Z,99.50
2023-05-13T18:22:44.834Z,98.90
2023-05-13T18:25:11.638Z,99.80
2023-05-13T18:27:38.531Z,99.90
2023-05-13T18:30:06.488Z,99.90
2023-05-13T18:32:33.391Z,99.50
2023-05-13T18:35:00.301Z,99.80
2023-05-13T18:37:27.124Z,99.50
2023-05-13T18:39:53.776Z,99.60
2023-05-13T18:42:21.064Z,99.60
2023-05-13T18:44:47.765Z,99.70
2023-05-13T18:47:14.476Z,99.80
2023-05-13T18:49:41.348Z,99.50
2023-05-13T18:52:08.059Z,99.70
2023-05-13T18:54:36.215Z,99.60
2023-05-13T18:57:03.215Z,99.80
2023-05-13T18:59:29.923Z,99.80
2023-05-13T19:01:57.361Z,99.80
2023-05-13T19:04:24.458Z,99.70
2023-05-13T19:06:51.639Z,99.70
2023-05-13T19:09:18.379Z,99.80
2023-05-13T19:11:45.228Z,99.80
2023-05-13T19:14:11.900Z,99.80
2023-05-13T19:16:38.762Z,99.40
2023-05-13T19:19:05.733Z,99.60
2023-05-13T19:21:33.293Z,99.60
2023-05-13T19:24:02.009Z,99.70
2023-05-13T19:26:29.185Z,99.80
2023-05-13T19:28:56.392Z,99.70
2023-05-13T19:31:24.200Z,99.70
2023-05-13T19:33:51.167Z,99.70
2023-05-13T19:36:17.917Z,99.10
2023-05-13T19:38:44.741Z,99.40
2023-05-13T19:41:11.585Z,99.30
2023-05-13T19:43:38.361Z,99.00
2023-05-13T19:46:05.169Z,99.20
2023-05-13T19:48:32.024Z,98.90
2023-05-13T19:50:58.932Z,98.80
2023-05-13T19:53:26.159Z,99.30
2023-05-13T19:55:53.029Z,99.40
2023-05-13T19:58:19.792Z,99.40
2023-05-13T20:00:46.520Z,99.10
2023-05-13T20:03:13.831Z,99.40
2023-05-13T20:05:41.293Z,99.90
2023-05-13T20:08:08.069Z,99.80
2023-05-13T20:10:37.722Z,99.60
2023-05-13T20:13:04.863Z,99.70
2023-05-13T20:15:32.186Z,99.70
2023-05-13T20:17:59.123Z,99.70
2023-05-13T20:20:26.017Z,99.90
2023-05-13T20:22:52.715Z,99.90
2023-05-13T20:25:19.553Z,99.50
2023-05-13T20:27:46.256Z,99.50
2023-05-13T20:30:13.204Z,99.50
2023-05-13T20:32:40.457Z,99.60
2023-05-13T20:35:07.626Z,99.30
2023-05-13T20:37:34.542Z,99.40
2023-05-13T20:40:01.418Z,99.10
2023-05-13T20:42:28.189Z,99.30
2023-05-13T20:44:54.924Z,98.80
2023-05-13T20:47:21.912Z,98.90
2023-05-13T20:49:48.704Z,99.00
2023-05-13T20:52:15.616Z,99.10
2023-05-13T20:54:42.465Z,99.30
2023-05-13T20:57:09.740Z,99.30
2023-05-13T20:59:36.725Z,99.30
2023-05-13T21:02:03.683Z,98.90
2023-05-13T21:04:31.136Z,98.50
2023-05-13T21:06:57.944Z,98.50
2023-05-13T21:09:24.750Z,98.50
2023-05-13T21:11:51.464Z,98.60
2023-05-13T21:14:18.197Z,98.90
2023-05-13T21:16:45.189Z,98.50
2023-05-13T21:19:19.071Z,98.50
2023-05-13T21:21:45.869Z,98.60
2023-05-13T21:24:13.118Z,98.80
2023-05-13T21:26:39.829Z,98.90
2023-05-13T21:29:06.596Z,98.50
2023-05-13T21:31:33.497Z,98.90
2023-05-13T21:34:00.323Z,98.40
2023-05-13T21:36:27.135Z,98.80
2023-05-13T21:38:54.288Z,98.90
2023-05-13T21:41:22.048Z,98.40
2023-05-13T21:43:48.831Z,98.20
2023-05-13T21:46:15.652Z,99.10
2023-05-13T21:48:42.375Z,98.30
2023-05-13T21:51:09.205Z,98.20
2023-05-13T21:53:36.080Z,98.40
2023-05-13T21:56:03.173Z,98.20
2023-05-13T21:58:30.037Z,98.50
2023-05-13T22:00:57.001Z,98.70
2023-05-13T22:03:23.861Z,98.70
2023-05-13T22:05:50.775Z,98.90
2023-05-13T22:08:17.528Z,98.90
2023-05-13T22:10:44.212Z,99.00
2023-05-13T22:13:11.125Z,98.30
2023-05-13T22:15:37.950Z,98.60
2023-05-13T22:18:04.886Z,98.80
2023-05-13T22:20:31.988Z,98.00
2023-05-13T22:22:58.927Z,98.20
2023-05-13T22:25:25.917Z,98.40
2023-05-13T22:27:52.841Z,98.60
2023-05-13T22:30:19.889Z,98.60
2023-05-13T22:32:46.657Z,98.70
2023-05-13T22:35:13.795Z,98.90
2023-05-13T22:37:40.688Z,98.90
2023-05-13T22:40:07.745Z,98.50
2023-05-13T22:42:34.688Z,98.60
2023-05-13T22:45:01.496Z,98.70
2023-05-13T22:47:28.350Z,99.10
2023-05-13T22:49:55.391Z,99.20
2023-05-13T22:52:22.104Z,99.10
2023-05-13T22:54:48.955Z,99.40
2023-05-13T22:57:15.720Z,99.20
2023-05-13T22:59:42.460Z,99.20
2023-05-13T23:02:09.185Z,99.00
2023-05-13T23:04:36.093Z,99.00
2023-05-13T23:07:02.869Z,99.00
2023-05-13T23:09:29.745Z,99.00
2023-05-13T23:11:57.319Z,98.90
2023-05-13T23:14:25.325Z,99.00
2023-05-13T23:16:52.167Z,99.20
2023-05-13T23:19:19.027Z,99.10
2023-05-13T23:21:45.914Z,98.90
2023-05-13T23:24:12.630Z,99.10
2023-05-13T23:26:39.632Z,99.40
2023-05-13T23:29:06.358Z,99.20
2023-05-13T23:31:33.179Z,99.30
2023-05-13T23:34:00.106Z,99.20
2023-05-13T23:36:26.847Z,99.30
2023-05-13T23:38:53.712Z,99.30
2023-05-13T23:41:21.989Z,99.00
2023-05-13T23:43:48.846Z,99.10
2023-05-13T23:46:15.624Z,99.20
2023-05-13T23:48:42.638Z,99.30
2023-05-13T23:51:09.340Z,99.30
2023-05-13T23:53:36.035Z,99.40
2023-05-13T23:56:02.771Z,99.00
2023-05-13T23:58:29.568Z,99.10
